西西论坛

 找回密码
 立即注册
搜索
收藏本版 (229) |订阅

百度网盘下载 今日: 0|主题: 13045|排名: 7 

作者 回复/查看 最后发表
[剧情片] [海上钢琴师][HR-HDTV.BDRIP-MKV/2.59G][双语字幕][百度网盘] attach_img 电影论坛 2014-9-23 03404 电影论坛 2014-9-23 13:58
[剧情片] [灵异第六感/鬼眼][BD-MP4/1.9G][英语中字][高清1080P版][百度网盘] 电影论坛 2014-9-23 01142 电影论坛 2014-9-23 13:56
[剧情片] [达芬奇密码加长版][BD-MKV/3.96G][中英双字][汤姆汉克斯06票房过亿火热惊悚剧情 720P] attach_img 电影论坛 2014-9-23 01469 电影论坛 2014-9-23 13:51
[恐怖片] [床下有人2][HD-MP4/599MB][国语中字][720P] 电影论坛 2014-9-23 01170 电影论坛 2014-9-23 10:15
[剧情片] [星运里的错(初版)][HR-HDTV.BDRIP-MKV+MP4/2.03G+760M][双语字幕][百度网盘] 电影论坛 2014-9-22 0957 电影论坛 2014-9-22 23:45
[剧情片] [勇敢的心][BD-MKV/4.37G][国英双语/中英字幕][男人必看超高评价战争动作史诗 720P][百度网盘] attach_img 电影论坛 2014-9-22 01289 电影论坛 2014-9-22 23:33
[动作片] [力王][BD-mkv/2.29GB][国粤双音轨][港最震撼眼球暴力动作][百度网盘] attachment 电影论坛 2014-9-22 08937 电影论坛 2014-9-22 23:22
[喜剧片] [三傻大闹宝莱坞][BD-RMVB/2.3G][中文字幕][480P+720P][百度网盘] attachment 电影论坛 2014-9-22 04408 电影论坛 2014-9-22 23:13
[剧情片] [机器人与弗兰克][HR-HDTV/1.36G][双语字幕][百度网盘] attach_img 电影论坛 2014-9-22 01042 电影论坛 2014-9-22 23:02
[动作片] [绝地战警][BD-MP4/2.1G][英语中字][高清1080P版][百度网盘] 电影论坛 2014-9-22 01133 电影论坛 2014-9-22 22:53
[动作片] [绝地战警2][HDTV-MP4/2.6G][英语中字][高清1080P版][百度网盘] 电影论坛 2014-9-22 114622 吕小龙 2014-9-22 23:35
[动作片] [特种部队2:复仇/特种部队2:全面反击][BD-MKV/2.73G][中英双字] attachment 电影论坛 2014-9-22 0959 电影论坛 2014-9-22 20:40
[爱情片] [霸王别姬][MKV/3.3G][国语中字][720P][张国荣经典/陈凯歌作品][百度网盘] attachment 电影论坛 2014-9-22 021166 电影论坛 2014-9-22 17:10
[动画片] [赛车总动员2][BluRay-720P.MKV/2.2G][双字][英语国语双音轨][百度网盘] attachment 电影论坛 2014-9-22 017373 电影论坛 2014-9-22 17:08
[动画片] [赛车总动员1][BD-mkv/2.92G][四语][超必看票房冠军][百度网盘] attach_img 电影论坛 2014-9-22 11729 937529254 2014-9-22 16:29
[剧情片] [林中小屋][WEB-MKV/2.24G][国语中字][百度网盘] attach_img 电影论坛 2014-9-22 01516 电影论坛 2014-9-22 15:51
[犯罪片] [火线追缉令/七宗罪][BD-MKV/2.96G][国英双语中字][百度网盘] attach_img 电影论坛 2014-9-22 01908 电影论坛 2014-9-22 15:45
[动画片] [挑战者联盟/桌面足球][BD-RMVB/1.16GB][中字][高清蓝光720P版] attachment 电影论坛 2014-9-22 0913 电影论坛 2014-9-22 15:39
[动作片] [夺宝奇兵2][BD-mkv/2.97GB][英语国语双音轨][史上最强探险动作][百度网盘] attachment 电影论坛 2014-9-22 01036 电影论坛 2014-9-22 15:36
[动作片] [夺宝奇兵1][BD-mkv/2.89GB][英语国语双音轨][史上最强探险动作][百度网盘] attachment 电影论坛 2014-9-22 11163 killyou777 2014-12-2 09:07
[动作片] [夺宝奇兵3][BD-mkv/3.27GB][英语国语双音轨][史上最强探险动作][百度网盘] attachment 电影论坛 2014-9-22 03809 电影论坛 2014-9-22 15:32
[动作片] [夺宝奇兵4][BD-mkv/3.51GB][英语国语双音轨][史上最强探险动作][百度网盘][百度网盘] attach_img 电影论坛 2014-9-22 03784 电影论坛 2014-9-22 15:28
[动作片] [夺宝奇兵四部曲 Indiana.Jones.1981-2008][BluRay-MKV/10.5G][国英双语][百度网盘] attach_img 电影论坛 2014-9-22 01511 电影论坛 2014-9-22 14:25
[动作片] [47浪人/47人之刺客][WEB-MKV/2.37G][英语中字] attach_img 电影论坛 2014-9-22 01223 电影论坛 2014-9-22 14:17
[动作片] [47浪人/47人之刺客][BD-MP4/2.15G][英语中字] attachment 电影论坛 2014-9-22 03585 电影论坛 2014-9-22 14:14
[动画片] [驯龙高手1+短片+番外篇][BD-mkv/4.65GB][英语国语四音轨][珍藏][百度网盘] attachment 电影论坛 2014-9-22 01235 电影论坛 2014-9-22 14:08
[动作片] [变相怪杰][BD-mkv/2.61GB][英语国语双音轨][金凯瑞最经典收藏][百度网盘] attachment 电影论坛 2014-9-22 015583 电影论坛 2014-9-22 14:00
[动画片] [冰河世纪3:大威龙驾到][BD-R/3.43G][中字][国语/英语/480P/720P][百度网盘] attachment 电影论坛 2014-9-22 05324 电影论坛 2014-9-22 13:55
[动画片] [冰河世纪2][BD-mkv/2.65GB][四语音轨][全球超热票房必看]【百度网盘】 attachment 电影论坛 2014-9-22 01232 电影论坛 2014-9-22 13:50
[动画片] [冰河世纪1][BD-RMVB/1.02G][国英双语/中英字幕][720P 双语高清][百度网盘] attachment 电影论坛 2014-9-22 01737 电影论坛 2014-9-22 13:47
[动画片] [冰河世纪三部曲][BD-MKV/9,.4G][国英粤台四语中英字幕][2002-2009][百度网盘] attachment 电影论坛 2014-9-22 02376 电影论坛 2014-9-22 13:43
[动画片] [冰河世纪4][BD-RMVB/1.11G][中英字幕][480/720P双版][百度网盘] attachment 电影论坛 2014-9-22 01698 电影论坛 2014-9-22 13:39
[科幻片] [星球大战合集][BD-MP4/12.8G][国英/中英字幕][720P][百度网盘] 电影论坛 2014-9-22 01845 电影论坛 2014-9-22 13:23
[冒险片] [黑暗侵袭/魔洞][BD-MKV/2.9G][英语/中英双字][让人性在鲜血淋漓间更赤裸720P高清][百度网盘] attach_img 电影论坛 2014-9-22 01717 电影论坛 2014-9-22 13:10
[冒险片] [黑暗侵袭2/深入绝地2(台)][BD-RMVB/1.18G][中英字幕][720P高清] attach_img 电影论坛 2014-9-22 02104 电影论坛 2014-9-22 13:06
[剧情片] [重口味][BD-RMVB/1.12G][国语中字][黄赌毒的疯狂闹剧蓝光720版][百度网盘] attach_img admin 2014-9-21 02043 admin 2014-9-21 14:16
[剧情片] [超级奶爸][百度网盘][BD-R/820M][中字][无水印1024分辨率] attach_img admin 2014-9-21 0999 admin 2015-4-8 06:46
[剧情片] [无处可逃/近墨者黑][BD-RMVB/1.22GB][中英双字][高清蓝光720P版] admin 2014-9-21 0889 admin 2014-9-21 11:48
[科幻片] [独立日][BD-RMVB/1.62G][中英字幕][欧美威尔·史密斯票房过亿超刺激科幻空战大片][百度网盘] attach_img admin 2014-9-21 03325 admin 2014-9-21 11:33
[动作片] [地狱神探/康斯坦丁][BD-mkv/2.65GB][中英双字幕][基努李维斯亿票房][百度网盘] attach_img admin 2014-9-21 02553 admin 2014-9-21 11:27
[剧情片] [性瘾日记][BluRay-720P.MKV/2.01G][中字][性感美女大胆演绎][babai[百度网盘] attach_img admin 2014-9-21 13663 s23ly 2014-11-19 22:04
[动作片] [猎鹰上升/猎鹰突起][BD-RMVB/1.17GB][中英双字][高清1280版][百度网盘] attach_img admin 2014-9-21 01092 admin 2014-9-21 11:11
[动作片] [精英部队(1-2集)][BD-RMVB/4G][葡萄牙语中字][720P] attachment 电影论坛 2014-9-20 0945 电影论坛 2014-9-20 16:50
[战争片] [战马][BD-MP4/2.74G][中英字幕][720P高清版][百度网盘] 电影论坛 2014-9-20 02619 电影论坛 2014-9-20 16:43
[绝命航班][WEB-MKV/2.23G][国语中字][百度网盘] attach_img 电影论坛 2014-9-20 1986 小乐 2014-9-20 21:38
[剧情片] [本杰明·巴顿奇事/返老还童][BD-RMVB/1.93G][中英字幕][480/720P双版][百度网盘] attachment 电影论坛 2014-9-20 02233 电影论坛 2014-9-20 16:09
[剧情片] [欲望号街车][HR-HDTV/1.9G][英语/双语字幕][百度网盘] attachment 电影论坛 2014-9-20 01657 电影论坛 2014-9-20 16:02
[动画片] [攻壳机动队:崛起3][BD-RMVB/629MB][中字][高清蓝光720P版][百度网盘] attachment 电影论坛 2014-9-20 01272 电影论坛 2014-9-20 15:57
[动画片] [攻壳机动队ARISE border:2][BD-MKV/2.19G][日语中字][百度网盘] attach_img 电影论坛 2014-9-20 01617 电影论坛 2014-9-20 15:52
[动画片] [攻壳机动队2.0]][BD-RMVB/1.04G][日语中字][720P版][百度网盘] attach_img 电影论坛 2014-9-20 01120 电影论坛 2014-9-20 15:44
[冒险片] [雨果/雨果的巴黎奇幻历险][BD-RMVB/1.88G][英语中字][百度网盘] attach_img 电影论坛 2014-9-20 01415 电影论坛 2014-9-20 15:36
[喜剧片] [超萌英雄][HD-MP4/887MB][国语][欧弟14新屌丝逆袭女神] [百度网盘] 电影论坛 2014-9-20 0882 电影论坛 2014-9-20 15:24
[动作片] [痞子英雄之全面开战][BD-RMVB/2G][中文字幕][720P高清][百度网盘] attachment 电影论坛 2014-9-20 02481 电影论坛 2014-9-20 15:20
[动作片] [生死时速2.海上惊情][HR-HDTV+MP4/2.25G+715M][双语字幕.国英音轨][百度网盘] attach_img 电影论坛 2014-9-20 01264 电影论坛 2014-9-20 15:12
[动作片] [生死时速.Speed][HR-HDTV+MP4/2.08G+662M][双语字幕.国英音轨][百度网盘] attach_img 电影论坛 2014-9-20 01591 电影论坛 2014-9-20 15:08
[剧情片] [片警妈妈][HD-MP4/1.54G][国语中字][720P高清] 电影论坛 2014-9-20 0853 电影论坛 2014-9-20 14:25
[惊悚片] [林中小屋/尸营旅舍/诡屋][BD-MKV/2.95G][中英双字][百度网盘] attach_img 电影论坛 2014-9-19 01700 电影论坛 2014-9-19 18:52
[动画片] [魁拔之十万火急/魁拔1][1080P高清.BD-MKV/2.8G][国日双语/中字][百度网盘] attach_img 电影论坛 2014-9-19 01803 电影论坛 2014-9-19 12:06
[动画片] [魁拔Ⅱ/魁拔之大战元泱界][WEBRip-MKV/608MB][国语中字][百度网盘] attach_img 电影论坛 2014-9-19 01462 电影论坛 2014-9-19 12:03
[剧情片] [中国合伙人][BD-MP4/1.6G][中英字幕] [百度网盘] attachment 电影论坛 2014-9-19 06041 电影论坛 2014-9-19 11:43
下一页 »

小黑屋|西西论坛

本网站所有资源来自网络,如无意中侵犯了您的权益,请发邮件至 804136696@qq.com,立即清除相关链接

广告招商qq 804136696

GMT+8, 2019-1-20 08:50 , Processed in 0.098506 second(s), 16 queries .

Powered by Discuz! X3.2

© 2001-2013 Comsenz Inc.

返回顶部 返回版块